createdAt,value
2022-12-15T00:01:49.660Z,99902.34
2022-12-15T00:04:34.434Z,99906.28
2022-12-15T00:07:19.300Z,99899.88
2022-12-15T00:10:04.393Z,99903.16
2022-12-15T00:12:49.133Z,99910.84
2022-12-15T00:15:33.951Z,99907.75
2022-12-15T00:18:23.867Z,99915.16
2022-12-15T00:21:08.751Z,99917.19
2022-12-15T00:23:53.684Z,99914.19
2022-12-15T00:26:38.738Z,99911.69
2022-12-15T00:29:23.779Z,99915.16
2022-12-15T00:32:08.408Z,99916.44
2022-12-15T00:34:53.165Z,99913.25
2022-12-15T00:37:37.652Z,99915.75
2022-12-15T00:40:05.220Z,99908.13
2022-12-15T00:42:31.604Z,99904.50
2022-12-15T00:44:58.519Z,99910.25
2022-12-15T00:47:25.228Z,99913.84
2022-12-15T00:50:10.081Z,99916.50
2022-12-15T00:52:55.182Z,99915.09
2022-12-15T00:55:39.892Z,99914.84
2022-12-15T00:58:24.572Z,99922.31
2022-12-15T01:01:09.524Z,99926.97
2022-12-15T01:03:54.208Z,99926.19
2022-12-15T01:06:39.560Z,99925.81
2022-12-15T01:09:27.060Z,99925.06
2022-12-15T01:12:12.610Z,99923.97
2022-12-15T01:14:58.071Z,99932.00
2022-12-15T01:17:43.308Z,99929.44
2022-12-15T01:20:14.453Z,99929.19
2022-12-15T01:22:41.454Z,99935.66
2022-12-15T01:25:08.939Z,99933.03
2022-12-15T01:27:35.464Z,99928.00
2022-12-15T01:30:02.549Z,99935.19
2022-12-15T01:32:28.926Z,99940.22
2022-12-15T01:34:55.299Z,99944.13
2022-12-15T01:37:21.736Z,99950.22
2022-12-15T01:40:06.422Z,99954.19
2022-12-15T01:42:32.936Z,99949.81
2022-12-15T01:45:21.058Z,99950.84
2022-12-15T01:47:47.424Z,99958.63
2022-12-15T01:50:14.574Z,99954.50
2022-12-15T01:52:45.714Z,99962.41
2022-12-15T01:55:17.586Z,99958.91
2022-12-15T01:57:44.038Z,99954.72
2022-12-15T02:00:11.134Z,99950.06
2022-12-15T02:02:40.360Z,99956.59
2022-12-15T02:05:07.849Z,99966.13
2022-12-15T02:07:34.200Z,99965.47
2022-12-15T02:10:01.947Z,99973.63
2022-12-15T02:12:50.291Z,99973.09
2022-12-15T02:15:41.684Z,99984.63
2022-12-15T02:18:26.509Z,99987.03
2022-12-15T02:21:07.898Z,99989.19
2022-12-15T02:24:03.736Z,99983.84
2022-12-15T02:26:58.099Z,99970.34
2022-12-15T02:29:44.096Z,99976.16
2022-12-15T02:32:15.316Z,99982.31
2022-12-15T02:35:05.974Z,99976.94
2022-12-15T02:37:34.504Z,99983.81
2022-12-15T02:40:01.175Z,99986.91
2022-12-15T02:42:29.120Z,99988.53
2022-12-15T02:44:58.643Z,99989.78
2022-12-15T02:47:49.096Z,99996.09
2022-12-15T02:50:29.262Z,99998.03
2022-12-15T02:52:58.374Z,99991.81
2022-12-15T02:56:07.909Z,99986.41
2022-12-15T02:59:11.059Z,99985.13
2022-12-15T03:01:44.476Z,99983.47
2022-12-15T03:04:12.007Z,99994.47
2022-12-15T03:06:38.870Z,99997.56
2022-12-15T03:09:05.291Z,100003.34
2022-12-15T03:11:31.854Z,100003.13
2022-12-15T03:13:58.205Z,100006.94
2022-12-15T03:16:24.651Z,100006.41
2022-12-15T03:18:52.272Z,100009.97
2022-12-15T03:21:18.656Z,100006.06
2022-12-15T03:23:45.199Z,100017.06
2022-12-15T03:26:11.781Z,100021.63
2022-12-15T03:28:38.168Z,100027.69
2022-12-15T03:31:04.570Z,100024.16
2022-12-15T03:33:33.805Z,100026.69
2022-12-15T03:36:00.610Z,100029.06
2022-12-15T03:38:26.994Z,100033.69
2022-12-15T03:40:53.350Z,100034.25
2022-12-15T03:43:19.712Z,100037.28
2022-12-15T03:45:46.186Z,100036.94
2022-12-15T03:48:12.819Z,100037.88
2022-12-15T03:50:39.166Z,100034.59
2022-12-15T03:53:05.631Z,100031.34
2022-12-15T03:55:32.416Z,100039.47
2022-12-15T03:57:59.183Z,100033.28
2022-12-15T04:00:25.768Z,100045.88
2022-12-15T04:02:52.939Z,100041.59
2022-12-15T04:05:22.078Z,100043.19
2022-12-15T04:07:48.454Z,100031.88
2022-12-15T04:10:15.844Z,100033.19
2022-12-15T04:12:42.252Z,100031.41
2022-12-15T04:15:10.197Z,100045.72
2022-12-15T04:17:37.186Z,100042.19
2022-12-15T04:20:11.699Z,100036.47
2022-12-15T04:22:43.163Z,100037.88
2022-12-15T04:25:34.266Z,100036.03
2022-12-15T04:28:19.478Z,100039.16
2022-12-15T04:31:08.165Z,100042.09
2022-12-15T04:33:54.175Z,100041.94
2022-12-15T04:36:39.117Z,100053.41
2022-12-15T04:39:24.500Z,100061.19
2022-12-15T04:42:10.382Z,100056.22
2022-12-15T04:44:55.519Z,100057.41
2022-12-15T04:47:40.398Z,100052.69
2022-12-15T04:50:25.891Z,100054.03
2022-12-15T04:53:10.580Z,100059.09
2022-12-15T04:55:55.743Z,100058.19
2022-12-15T04:58:40.667Z,100052.00
2022-12-15T05:01:25.947Z,100060.06
2022-12-15T05:04:11.229Z,100056.19
2022-12-15T05:06:55.810Z,100055.34
2022-12-15T05:09:40.938Z,100058.06
2022-12-15T05:12:25.749Z,100057.66
2022-12-15T05:15:10.443Z,100053.91
2022-12-15T05:17:55.273Z,100053.56
2022-12-15T05:20:40.327Z,100064.38
2022-12-15T05:23:25.130Z,100070.19
2022-12-15T05:26:10.066Z,100077.97
2022-12-15T05:28:55.031Z,100075.25
2022-12-15T05:31:39.943Z,100078.97
2022-12-15T05:34:06.915Z,100075.31
2022-12-15T05:36:33.431Z,100071.38
2022-12-15T05:38:59.799Z,100072.28
2022-12-15T05:41:26.195Z,100092.19
2022-12-15T05:43:52.549Z,100094.25
2022-12-15T05:46:19.639Z,100099.03
2022-12-15T05:48:46.296Z,100096.72
2022-12-15T05:51:13.500Z,100098.34
2022-12-15T05:53:40.869Z,100097.50
2022-12-15T05:56:09.911Z,100098.03
2022-12-15T05:58:41.530Z,100103.28
2022-12-15T06:01:16.900Z,100108.22
2022-12-15T06:03:43.599Z,100099.28
2022-12-15T06:06:11.320Z,100103.25
2022-12-15T06:08:39.302Z,100101.03
2022-12-15T06:11:05.800Z,100106.16
2022-12-15T06:13:34.544Z,100106.88
2022-12-15T06:16:05.013Z,100117.31
2022-12-15T06:18:37.475Z,100112.09
2022-12-15T06:21:06.970Z,100114.09
2022-12-15T06:23:34.485Z,100109.19
2022-12-15T06:26:15.850Z,100111.91
2022-12-15T06:28:42.286Z,100115.06
2022-12-15T06:31:10.479Z,100114.56
2022-12-15T06:33:37.332Z,100110.94
2022-12-15T06:36:05.598Z,100116.47
2022-12-15T06:38:32.519Z,100120.03
2022-12-15T06:41:00.086Z,100116.63
2022-12-15T06:43:27.604Z,100124.53
2022-12-15T06:45:54.501Z,100119.53
2022-12-15T06:48:23.660Z,100120.19
2022-12-15T06:50:50.633Z,100112.50
2022-12-15T06:53:18.557Z,100115.97
2022-12-15T06:55:45.650Z,100119.47
2022-12-15T06:58:12.979Z,100122.09
2022-12-15T07:00:40.909Z,100131.66
2022-12-15T07:03:10.421Z,100139.66
2022-12-15T07:05:36.936Z,100136.00
2022-12-15T07:08:03.323Z,100141.94
2022-12-15T07:10:29.771Z,100139.59
2022-12-15T07:12:57.579Z,100145.16
2022-12-15T07:15:24.450Z,100146.91
2022-12-15T07:17:51.271Z,100147.00
2022-12-15T07:20:17.697Z,100151.09
2022-12-15T07:22:44.078Z,100152.28
2022-12-15T07:25:10.523Z,100150.75
2022-12-15T07:27:36.897Z,100154.44
2022-12-15T07:30:03.398Z,100154.66
2022-12-15T07:32:30.623Z,100162.47
2022-12-15T07:34:57.074Z,100160.66
2022-12-15T07:37:23.449Z,100157.44
2022-12-15T07:39:49.809Z,100159.00
2022-12-15T07:42:16.201Z,100161.25
2022-12-15T07:44:42.671Z,100167.69
2022-12-15T07:47:09.084Z,100173.13
2022-12-15T07:49:35.464Z,100172.28
2022-12-15T07:52:01.837Z,100174.41
2022-12-15T07:54:29.124Z,100179.34
2022-12-15T07:56:55.632Z,100178.81
2022-12-15T07:59:22.015Z,100177.94
2022-12-15T08:01:49.462Z,100180.72
2022-12-15T08:04:16.196Z,100184.78
2022-12-15T08:06:42.787Z,100189.16
2022-12-15T08:09:09.811Z,100179.47
2022-12-15T08:11:36.719Z,100190.97
2022-12-15T08:14:04.950Z,100193.69
2022-12-15T08:16:34.192Z,100205.47
2022-12-15T08:19:00.704Z,100206.94
2022-12-15T08:21:27.192Z,100209.25
2022-12-15T08:23:53.830Z,100196.16
2022-12-15T08:26:23.791Z,100206.06
2022-12-15T08:28:51.512Z,100201.03
2022-12-15T08:31:23.314Z,100198.72
2022-12-15T08:33:50.656Z,100203.56
2022-12-15T08:36:18.283Z,100195.41
2022-12-15T08:38:45.795Z,100204.59
2022-12-15T08:41:17.479Z,100198.31
2022-12-15T08:43:48.473Z,100204.34
2022-12-15T08:46:16.994Z,100204.84
2022-12-15T08:48:43.736Z,100213.41
2022-12-15T08:51:10.544Z,100204.72
2022-12-15T08:53:37.034Z,100205.75
2022-12-15T08:56:08.305Z,100201.06
2022-12-15T08:58:34.738Z,100203.59
2022-12-15T09:01:06.041Z,100209.75
2022-12-15T09:03:33.903Z,100205.75
2022-12-15T09:06:10.189Z,100200.44
2022-12-15T09:08:36.540Z,100209.09
2022-12-15T09:11:05.523Z,100216.09
2022-12-15T09:13:32.467Z,100214.84
2022-12-15T09:16:09.365Z,100211.81
2022-12-15T09:18:36.132Z,100214.25
2022-12-15T09:21:06.546Z,100223.38
2022-12-15T09:23:34.078Z,100227.41
2022-12-15T09:26:08.663Z,100231.53
2022-12-15T09:28:35.435Z,100228.84
2022-12-15T09:31:09.379Z,100230.34
2022-12-15T09:33:36.524Z,100229.50
2022-12-15T09:36:03.872Z,100229.78
2022-12-15T09:38:31.089Z,100243.59
2022-12-15T09:40:57.546Z,100241.13
2022-12-15T09:43:34.790Z,100237.91
2022-12-15T09:46:21.041Z,100235.56
2022-12-15T09:48:48.101Z,100233.63
2022-12-15T09:51:17.190Z,100243.78
2022-12-15T09:53:59.560Z,100256.94
2022-12-15T09:56:33.174Z,100245.22
2022-12-15T09:59:16.354Z,100257.00
2022-12-15T10:02:10.792Z,100257.94
2022-12-15T10:04:45.990Z,100254.13
2022-12-15T10:07:31.230Z,100256.28
2022-12-15T10:09:57.886Z,100251.00
2022-12-15T10:12:31.330Z,100265.88
2022-12-15T10:15:04.872Z,100253.53
2022-12-15T10:18:00.254Z,100256.28
2022-12-15T10:20:28.968Z,100254.81
2022-12-15T10:22:57.907Z,100261.94
2022-12-15T10:25:30.493Z,100260.41
2022-12-15T10:28:06.361Z,100256.38
2022-12-15T10:30:33.732Z,100263.38
2022-12-15T10:33:15.297Z,100264.44
2022-12-15T10:35:43.893Z,100265.75
2022-12-15T10:38:24.450Z,100264.75
2022-12-15T10:40:54.716Z,100264.56
2022-12-15T10:43:28.044Z,100266.38
2022-12-15T10:46:14.015Z,100264.56
2022-12-15T10:48:41.957Z,100266.22
2022-12-15T10:51:08.220Z,100262.91
2022-12-15T10:53:40.458Z,100261.78
2022-12-15T10:56:08.219Z,100254.75
2022-12-15T10:58:50.824Z,100253.63
2022-12-15T11:01:24.795Z,100252.72
2022-12-15T11:03:52.688Z,100247.44
2022-12-15T11:06:28.097Z,100250.69
2022-12-15T11:08:57.367Z,100248.31
2022-12-15T11:11:45.196Z,100241.72
2022-12-15T11:14:43.120Z,100248.72
2022-12-15T11:17:09.643Z,100248.34
2022-12-15T11:19:40.766Z,100244.72
2022-12-15T11:22:18.101Z,100234.50
2022-12-15T11:24:48.790Z,100231.00
2022-12-15T11:27:38.903Z,100239.16
2022-12-15T11:30:14.345Z,100247.44
2022-12-15T11:32:44.459Z,100248.81
2022-12-15T11:35:22.152Z,100237.91
2022-12-15T11:37:57.711Z,100235.81
2022-12-15T11:40:30.746Z,100230.75
2022-12-15T11:43:35.279Z,100219.16
2022-12-15T11:46:25.733Z,100219.63
2022-12-15T11:49:01.999Z,100221.53
2022-12-15T11:51:42.420Z,100216.13
2022-12-15T11:54:33.855Z,100208.19
2022-12-15T11:57:13.340Z,100211.72
2022-12-15T11:59:45.844Z,100208.94
2022-12-15T12:02:22.744Z,100213.22
2022-12-15T12:05:07.151Z,100208.53
2022-12-15T12:08:02.727Z,100200.59
2022-12-15T12:10:28.987Z,100199.59
2022-12-15T12:13:16.738Z,100209.31
2022-12-15T12:15:57.610Z,100209.50
2022-12-15T12:18:38.085Z,100203.13
2022-12-15T12:21:17.180Z,100201.28
2022-12-15T12:24:04.580Z,100204.59
2022-12-15T12:26:50.183Z,100202.00
2022-12-15T12:29:33.298Z,100201.56
2022-12-15T12:32:09.001Z,100201.16
2022-12-15T12:35:30.654Z,100200.78
2022-12-15T12:40:59.641Z,100189.25
2022-12-15T12:43:50.408Z,100185.41
2022-12-15T12:46:22.792Z,100179.88
2022-12-15T12:48:55.957Z,100176.59
2022-12-15T12:51:24.486Z,100177.09
2022-12-15T12:53:51.527Z,100166.75
2022-12-15T12:56:40.672Z,100166.47
2022-12-15T12:59:30.408Z,100160.97
2022-12-15T13:01:58.937Z,100166.69
2022-12-15T13:04:28.305Z,100168.94
2022-12-15T13:06:54.600Z,100166.00
2022-12-15T13:09:24.031Z,100160.22
2022-12-15T13:11:53.336Z,100157.59
2022-12-15T13:14:26.496Z,100160.91
2022-12-15T13:17:27.815Z,100150.06
2022-12-15T13:20:00.706Z,100150.47
2022-12-15T13:22:40.260Z,100149.78
2022-12-15T13:25:42.963Z,100140.59
2022-12-15T13:28:27.192Z,100138.84
2022-12-15T13:31:16.480Z,100135.59
2022-12-15T13:33:55.750Z,100135.88
2022-12-15T13:36:37.664Z,100132.44
2022-12-15T13:39:30.108Z,100125.22
2022-12-15T13:44:51.750Z,100120.91
2022-12-15T13:47:29.657Z,100120.88
2022-12-15T13:50:18.197Z,100113.78
2022-12-15T13:55:52.931Z,100120.50
2022-12-15T13:58:20.692Z,100117.53
2022-12-15T14:00:58.200Z,100112.97
2022-12-15T14:03:26.103Z,100120.97
2022-12-15T14:05:57.410Z,100123.03
2022-12-15T14:08:27.197Z,100119.63
2022-12-15T14:10:56.275Z,100111.69
2022-12-15T14:13:31.396Z,100121.63
2022-12-15T14:16:04.408Z,100115.06
2022-12-15T14:18:33.867Z,100116.06
2022-12-15T14:21:01.724Z,100115.09
2022-12-15T14:23:31.565Z,100115.44
2022-12-15T14:26:07.071Z,100112.88
2022-12-15T14:28:36.290Z,100110.66
2022-12-15T14:31:06.108Z,100104.78
2022-12-15T14:33:36.521Z,100110.13
2022-12-15T14:36:06.436Z,100103.78
2022-12-15T14:38:54.538Z,100096.00
2022-12-15T14:41:25.352Z,100092.78
2022-12-15T14:44:37.337Z,100090.75
2022-12-15T14:46:38.875Z,100085.47
2022-12-15T14:49:07.495Z,100084.53
2022-12-15T14:51:43.137Z,100093.41
2022-12-15T14:54:32.099Z,100096.06
2022-12-15T14:57:28.151Z,100094.16
2022-12-15T14:59:54.841Z,100085.31
2022-12-15T15:02:28.271Z,100092.25
2022-12-15T15:03:05.024Z,100196.81
2022-12-15T15:03:10.627Z,100123.00
2022-12-15T15:04:56.268Z,100088.84
2022-12-15T15:07:23.719Z,100082.69
2022-12-15T15:09:50.309Z,100087.56
2022-12-15T15:12:21.847Z,100087.53
2022-12-15T15:14:51.842Z,100094.22
2022-12-15T15:17:47.616Z,100084.84
2022-12-15T15:20:31.565Z,100084.59
2022-12-15T15:23:06.967Z,100091.38
2022-12-15T15:25:39.389Z,100086.44
2022-12-15T15:28:18.657Z,100084.94
2022-12-15T15:31:06.699Z,100074.78
2022-12-15T15:33:33.264Z,100083.19
2022-12-15T15:36:01.644Z,100079.13
2022-12-15T15:38:36.544Z,100090.47
2022-12-15T15:41:15.163Z,100092.09
2022-12-15T15:43:41.669Z,100106.13
2022-12-15T15:46:13.181Z,100106.16
2022-12-15T15:48:46.540Z,100106.59
2022-12-15T15:51:13.006Z,100105.50
2022-12-15T15:53:39.431Z,100115.66
2022-12-15T15:56:07.138Z,100121.84
2022-12-15T15:58:34.846Z,100121.78
2022-12-15T16:01:02.010Z,100116.16
2022-12-15T16:03:29.220Z,100121.28
2022-12-15T16:05:56.312Z,100124.91
2022-12-15T16:08:27.708Z,100129.47
2022-12-15T16:10:54.407Z,100128.00
2022-12-15T16:13:26.025Z,100129.09
2022-12-15T16:15:53.044Z,100134.31
2022-12-15T16:18:19.902Z,100139.94
2022-12-15T16:20:48.851Z,100135.53
2022-12-15T16:23:21.246Z,100151.50
2022-12-15T16:25:53.235Z,100152.28
2022-12-15T16:28:21.401Z,100164.19
2022-12-15T16:30:48.120Z,100162.75
2022-12-15T16:33:14.807Z,100164.94
2022-12-15T16:35:42.055Z,100160.56
2022-12-15T16:38:16.117Z,100162.03
2022-12-15T16:40:42.495Z,100162.59
2022-12-15T16:43:14.727Z,100168.75
2022-12-15T16:45:42.331Z,100170.34
2022-12-15T16:48:08.884Z,100161.88
2022-12-15T16:50:37.597Z,100179.75
2022-12-15T16:53:04.608Z,100179.75
2022-12-15T16:55:36.625Z,100177.94
2022-12-15T16:58:06.549Z,100171.25
2022-12-15T17:00:35.134Z,100179.38
2022-12-15T17:03:02.625Z,100197.09
2022-12-15T17:05:33.982Z,100190.78
2022-12-15T17:08:04.300Z,100196.00
2022-12-15T17:10:31.324Z,100189.84
2022-12-15T17:13:06.625Z,100201.22
2022-12-15T17:15:33.042Z,100195.13
2022-12-15T17:17:59.438Z,100199.28
2022-12-15T17:20:29.497Z,100194.56
2022-12-15T17:23:00.834Z,100202.16
2022-12-15T17:26:01.627Z,100207.25
2022-12-15T17:28:23.537Z,100201.81
2022-12-15T17:30:51.403Z,100202.72
2022-12-15T17:33:20.436Z,100209.91
2022-12-15T17:35:48.681Z,100212.25
2022-12-15T17:38:17.001Z,100215.13
2022-12-15T17:40:43.379Z,100216.56
2022-12-15T17:43:14.523Z,100222.72
2022-12-15T17:45:41.525Z,100227.03
2022-12-15T17:48:08.241Z,100228.28
2022-12-15T17:50:35.214Z,100227.72
2022-12-15T17:53:03.434Z,100227.56
2022-12-15T17:55:34.774Z,100230.63
2022-12-15T17:58:02.691Z,100230.25
2022-12-15T18:00:31.136Z,100238.94
2022-12-15T18:02:59.375Z,100244.00
2022-12-15T18:05:28.911Z,100243.25
2022-12-15T18:07:57.363Z,100258.78
2022-12-15T18:10:30.947Z,100253.19
2022-12-15T18:12:57.488Z,100263.72
2022-12-15T18:15:26.940Z,100266.06
2022-12-15T18:17:54.008Z,100266.03
2022-12-15T18:20:20.757Z,100264.22
2022-12-15T18:22:48.727Z,100246.38
2022-12-15T18:25:41.556Z,100244.38
2022-12-15T18:28:15.410Z,100249.06
2022-12-15T18:30:41.795Z,100253.25
2022-12-15T18:33:08.417Z,100248.97
2022-12-15T18:35:37.215Z,100248.63
2022-12-15T18:38:13.103Z,100254.34
2022-12-15T18:40:39.510Z,100236.69
2022-12-15T18:43:12.055Z,100238.66
2022-12-15T18:45:38.464Z,100229.06
2022-12-15T18:48:14.618Z,100221.59
2022-12-15T18:50:41.054Z,100214.94
2022-12-15T18:53:14.930Z,100210.91
2022-12-15T18:55:41.344Z,100205.41
2022-12-15T18:58:19.433Z,100204.59
2022-12-15T19:00:45.869Z,100216.97
2022-12-15T19:03:12.343Z,100216.81
2022-12-15T19:05:39.809Z,100222.91
2022-12-15T19:08:11.771Z,100237.19
2022-12-15T19:10:42.761Z,100239.16
2022-12-15T19:13:16.914Z,100237.22
2022-12-15T19:15:43.766Z,100236.56
2022-12-15T19:18:36.518Z,100244.06
2022-12-15T19:21:41.656Z,100240.81
2022-12-15T19:24:11.440Z,100239.78
2022-12-15T19:26:40.135Z,100237.06
2022-12-15T19:29:14.112Z,100233.50
2022-12-15T19:31:40.539Z,100229.25
2022-12-15T19:34:08.047Z,100224.13
2022-12-15T19:36:36.876Z,100220.50
2022-12-15T19:39:04.658Z,100222.84
2022-12-15T19:41:38.051Z,100220.13
2022-12-15T19:44:13.621Z,100222.13
2022-12-15T19:46:41.598Z,100216.38
2022-12-15T19:49:08.104Z,100214.19
2022-12-15T19:51:34.543Z,100219.31
2022-12-15T19:54:01.118Z,100220.16
2022-12-15T19:56:29.050Z,100212.31
2022-12-15T19:58:55.780Z,100221.00
2022-12-15T20:01:22.578Z,100215.56
2022-12-15T20:03:51.146Z,100214.50
2022-12-15T20:06:26.118Z,100217.91
2022-12-15T20:08:55.690Z,100229.50
2022-12-15T20:11:24.725Z,100228.72
2022-12-15T20:13:51.621Z,100226.28
2022-12-15T20:16:19.113Z,100229.81
2022-12-15T20:18:46.796Z,100229.16
2022-12-15T20:21:16.804Z,100229.16
2022-12-15T20:23:51.944Z,100223.81
2022-12-15T20:26:18.865Z,100234.47
2022-12-15T20:28:45.363Z,100229.69
2022-12-15T20:31:16.493Z,100223.56
2022-12-15T20:33:44.157Z,100222.81
2022-12-15T20:36:15.939Z,100223.75
2022-12-15T20:38:42.700Z,100220.28
2022-12-15T20:41:16.217Z,100215.19
2022-12-15T20:43:42.739Z,100225.47
2022-12-15T20:46:15.984Z,100229.75
2022-12-15T20:48:43.035Z,100225.78
2022-12-15T20:51:14.258Z,100229.09
2022-12-15T20:53:40.819Z,100222.19
2022-12-15T20:56:07.979Z,100221.06
2022-12-15T20:58:40.197Z,100222.31
2022-12-15T21:01:31.703Z,100221.38
2022-12-15T21:03:59.802Z,100219.84
2022-12-15T21:06:27.711Z,100214.50
2022-12-15T21:08:54.771Z,100212.38
2022-12-15T21:11:26.155Z,100207.91
2022-12-15T21:13:54.191Z,100208.25
2022-12-15T21:16:26.275Z,100221.13
2022-12-15T21:21:43.295Z,100233.72
2022-12-15T21:24:22.668Z,100235.94
2022-12-15T21:26:49.926Z,100233.84
2022-12-15T21:29:19.289Z,100223.56
2022-12-15T21:31:46.080Z,100229.00
2022-12-15T21:34:12.713Z,100229.50
2022-12-15T21:36:40.389Z,100240.41
2022-12-15T21:39:07.348Z,100239.91
2022-12-15T21:41:34.198Z,100233.84
2022-12-15T21:44:00.639Z,100234.25
2022-12-15T21:46:30.369Z,100235.88
2022-12-15T21:49:17.340Z,100239.50
2022-12-15T21:51:58.856Z,100231.59
2022-12-15T21:54:32.962Z,100238.66
2022-12-15T21:57:00.191Z,100233.66
2022-12-15T21:59:29.344Z,100238.25
2022-12-15T22:01:56.150Z,100239.56
2022-12-15T22:04:32.521Z,100241.72
2022-12-15T22:06:58.933Z,100241.50
2022-12-15T22:09:25.357Z,100243.00
2022-12-15T22:11:56.189Z,100249.47
2022-12-15T22:14:29.486Z,100258.22
2022-12-15T22:16:56.737Z,100258.22
2022-12-15T22:19:23.937Z,100258.84
2022-12-15T22:21:50.661Z,100267.06
2022-12-15T22:24:18.941Z,100276.25
2022-12-15T22:26:45.346Z,100276.28
2022-12-15T22:29:20.685Z,100276.75
2022-12-15T22:31:47.746Z,100286.06
2022-12-15T22:34:19.604Z,100276.88
2022-12-15T22:36:46.105Z,100276.88
2022-12-15T22:39:14.631Z,100276.38
2022-12-15T22:41:43.735Z,100280.38
2022-12-15T22:44:37.119Z,100278.53
2022-12-15T22:47:04.168Z,100279.31
2022-12-15T22:49:34.663Z,100268.56
2022-12-15T22:52:01.066Z,100278.22
2022-12-15T22:54:29.067Z,100286.41
2022-12-15T22:57:04.215Z,100281.56
2022-12-15T22:59:31.803Z,100286.97
2022-12-15T23:01:58.444Z,100290.13
2022-12-15T23:04:25.153Z,100289.47
2022-12-15T23:06:51.768Z,100286.19
2022-12-15T23:09:18.386Z,100278.25
2022-12-15T23:11:44.906Z,100280.25
2022-12-15T23:14:14.151Z,100279.78
2022-12-15T23:16:40.637Z,100284.91
2022-12-15T23:19:08.354Z,100293.34
2022-12-15T23:21:35.327Z,100300.22
2022-12-15T23:24:01.838Z,100297.22
2022-12-15T23:26:28.189Z,100298.97
2022-12-15T23:28:55.246Z,100297.31
2022-12-15T23:31:22.093Z,100304.19
2022-12-15T23:33:48.540Z,100307.38
2022-12-15T23:36:14.906Z,100309.88
2022-12-15T23:38:41.427Z,100300.22
2022-12-15T23:41:07.861Z,100305.22
2022-12-15T23:43:35.291Z,100309.19
2022-12-15T23:46:05.205Z,100305.69
2022-12-15T23:48:34.515Z,100310.47
2022-12-15T23:51:20.284Z,100308.16
2022-12-15T23:53:47.501Z,100314.44
2022-12-15T23:56:18.933Z,100299.31
2022-12-15T23:58:46.647Z,100301.56
